Check out our new BloomSky Weather System.

Active alerts

Houston, TX
  Details for Houston, TX Special Weather Statement
Galveston, TX
  Details for Galveston, TX Special Weather Statement


Thunder radar  blitzortung!


Rain radar more information rain snow radar


Visit our other weather sites:

Template documentation
and downloads

And another site



Weather Underground History page Text

Daily Summary for February 15, 2018 Units:  Both    English   Metric
« Previous Day
Next Day »
Daily Weekly Monthly Yearly Custom
  High: Low: Average:
Temperature: TemperatureF °F /  -17.8 °C 67.8 °F /  19.9 °C 72.2 °F /  22.3 °C
Dew Point: DewpointF °F /  -17.8 °C 65.1 °F /  18.4 °C 67.6 °F /  19.8 °C
Humidity: Humidity % 62 % 86 %
Wind Speed: WindSpeedMPH mph /  0 km/h - 4.5 mph /  7.2 km/h
Wind Gust: WindSpeedGustMPH mph /  0 km/h - -
Wind:- - South
Pressure: PressureIn in /  0 hPa 30.02 in /  1016.5 hPa -
Precipitation: 0.00 in /  0 mm    
Historical Graphs
 
 
Tabular Data for February 15, 2018
Time Temperature Dew Point Pressure Wind Wind Speed Wind Gust Humidity Rainfall Rate (Hourly)
TemperatureF °F /  -17.8 °C DewpointF °F /  -17.8 °C PressureIn in /  0 hPa Calm     Humidity % HourlyPrecipIn in /  0 mm
00:04 69.1 °F /  20.6 °C 68.2 °F /  20.1 °C 30.14 in /  1020.5 hPa South 5.0 mph /  8 km/h 11.0 mph /  17.7 km/h 97 % 0.00 in /  0 mm
00:09 69.1 °F /  20.6 °C 68.2 °F /  20.1 °C 30.15 in /  1020.9 hPa SE 6.0 mph /  9.7 km/h 11.0 mph /  17.7 km/h 97 % 0.00 in /  0 mm
00:14 69.3 °F /  20.7 °C 68.4 °F /  20.2 °C 30.15 in /  1020.9 hPa SSE 4.0 mph /  6.4 km/h 11.0 mph /  17.7 km/h 97 % 0.00 in /  0 mm
00:19 69.3 °F /  20.7 °C 68.4 °F /  20.2 °C 30.15 in /  1020.9 hPa SSE 2.0 mph /  3.2 km/h 11.0 mph /  17.7 km/h 97 % 0.00 in /  0 mm
00:24 69.3 °F /  20.7 °C 68.4 °F /  20.2 °C 30.15 in /  1020.9 hPa South 7.0 mph /  11.3 km/h 10.0 mph /  16.1 km/h 97 % 0.00 in /  0 mm
00:29 69.3 °F /  20.7 °C 68.4 °F /  20.2 °C 30.14 in /  1020.5 hPa SSW 4.0 mph /  6.4 km/h 15.0 mph /  24.1 km/h 97 % 0.00 in /  0 mm
00:31 69.3 °F /  20.7 °C 68.4 °F /  20.2 °C 30.14 in /  1020.5 hPa SSE 5.0 mph /  8 km/h 15.0 mph /  24.1 km/h 97 % 0.00 in /  0 mm
00:36 69.3 °F /  20.7 °C 68.4 °F /  20.2 °C 30.15 in /  1020.9 hPa SE 6.0 mph /  9.7 km/h 15.0 mph /  24.1 km/h 97 % 0.00 in /  0 mm
00:41 69.3 °F /  20.7 °C 68.4 °F /  20.2 °C 30.15 in /  1020.9 hPa SSW 3.0 mph /  4.8 km/h 12.0 mph /  19.3 km/h 97 % 0.00 in /  0 mm
00:46 69.3 °F /  20.7 °C 68.4 °F /  20.2 °C 30.15 in /  1020.9 hPa South 5.0 mph /  8 km/h 10.0 mph /  16.1 km/h 97 % 0.00 in /  0 mm
00:51 69.3 °F /  20.7 °C 68.4 °F /  20.2 °C 30.15 in /  1020.9 hPa South 2.0 mph /  3.2 km/h 10.0 mph /  16.1 km/h 97 % 0.00 in /  0 mm
00:56 69.3 °F /  20.7 °C 68.4 °F /  20.2 °C 30.16 in /  1021.2 hPa SSW 3.0 mph /  4.8 km/h 10.0 mph /  16.1 km/h 97 % 0.00 in /  0 mm
01:01 69.3 °F /  20.7 °C 68.4 °F /  20.2 °C 30.16 in /  1021.2 hPa South 3.0 mph /  4.8 km/h 9.0 mph /  14.5 km/h 97 % 0.00 in /  0 mm
01:06 69.3 °F /  20.7 °C 68.4 °F /  20.2 °C 30.15 in /  1020.9 hPa ESE 2.0 mph /  3.2 km/h 6.0 mph /  9.7 km/h 97 % 0.00 in /  0 mm
01:11 69.3 °F /  20.7 °C 68.4 °F /  20.2 °C 30.16 in /  1021.2 hPa South 3.0 mph /  4.8 km/h 6.0 mph /  9.7 km/h 97 % 0.00 in /  0 mm
01:16 69.3 °F /  20.7 °C 68.4 °F /  20.2 °C 30.16 in /  1021.2 hPa SE 3.0 mph /  4.8 km/h 6.0 mph /  9.7 km/h 97 % 0.00 in /  0 mm
01:21 69.3 °F /  20.7 °C 68.4 °F /  20.2 °C 30.16 in /  1021.2 hPa SSE 2.0 mph /  3.2 km/h 6.0 mph /  9.7 km/h 97 % 0.00 in /  0 mm
01:26 69.3 °F /  20.7 °C 68.4 °F /  20.2 °C 30.16 in /  1021.2 hPa SSE 4.0 mph /  6.4 km/h 6.0 mph /  9.7 km/h 97 % 0.00 in /  0 mm
01:31 69.3 °F /  20.7 °C 68.4 °F /  20.2 °C 30.16 in /  1021.2 hPa SSE 3.0 mph /  4.8 km/h 7.0 mph /  11.3 km/h 97 % 0.00 in /  0 mm
01:36 69.3 °F /  20.7 °C 68.4 °F /  20.2 °C 30.16 in /  1021.2 hPa SSE 3.0 mph /  4.8 km/h 7.0 mph /  11.3 km/h 97 % 0.00 in /  0 mm
01:41 69.3 °F /  20.7 °C 68.4 °F /  20.2 °C 30.15 in /  1020.9 hPa SE 6.0 mph /  9.7 km/h 10.0 mph /  16.1 km/h 97 % 0.00 in /  0 mm
01:46 69.1 °F /  20.6 °C 68.2 °F /  20.1 °C 30.16 in /  1021.2 hPa SSW 4.0 mph /  6.4 km/h 10.0 mph /  16.1 km/h 97 % 0.00 in /  0 mm
01:51 69.1 °F /  20.6 °C 68.2 °F /  20.1 °C 30.15 in /  1020.9 hPa SE 3.0 mph /  4.8 km/h 10.0 mph /  16.1 km/h 97 % 0.00 in /  0 mm
01:56 69.1 °F /  20.6 °C 68.5 °F /  20.3 °C 30.15 in /  1020.9 hPa South 3.0 mph /  4.8 km/h 9.0 mph /  14.5 km/h 98 % 0.00 in /  0 mm
02:01 69.1 °F /  20.6 °C 68.5 °F /  20.3 °C 30.15 in /  1020.9 hPa SSE 8.0 mph /  12.9 km/h 9.0 mph /  14.5 km/h 98 % 0.00 in /  0 mm
02:06 68.9 °F /  20.5 °C 68.4 °F /  20.2 °C 30.15 in /  1020.9 hPa SSW 3.0 mph /  4.8 km/h 11.0 mph /  17.7 km/h 98 % 0.00 in /  0 mm
02:11 68.7 °F /  20.4 °C 68.2 °F /  20.1 °C 30.15 in /  1020.9 hPa South 5.0 mph /  8 km/h 11.0 mph /  17.7 km/h 98 % 0.00 in /  0 mm
02:16 68.7 °F /  20.4 °C 68.2 °F /  20.1 °C 30.15 in /  1020.9 hPa South 4.0 mph /  6.4 km/h 11.0 mph /  17.7 km/h 98 % 0.00 in /  0 mm
02:21 68.7 °F /  20.4 °C 68.2 °F /  20.1 °C 30.15 in /  1020.9 hPa SSE 2.0 mph /  3.2 km/h 10.0 mph /  16.1 km/h 98 % 0.00 in /  0 mm
02:26 68.5 °F /  20.3 °C 68.0 °F /  20 °C 30.15 in /  1020.9 hPa SSE 2.0 mph /  3.2 km/h 10.0 mph /  16.1 km/h 98 % 0.00 in /  0 mm
02:31 68.5 °F /  20.3 °C 68.0 °F /  20 °C 30.16 in /  1021.2 hPa SSE 1.0 mph /  1.6 km/h 7.0 mph /  11.3 km/h 98 % 0.00 in /  0 mm
02:36 68.5 °F /  20.3 °C 68.0 °F /  20 °C 30.16 in /  1021.2 hPa South 3.0 mph /  4.8 km/h 5.0 mph /  8 km/h 98 % 0.00 in /  0 mm
02:41 68.5 °F /  20.3 °C 68.0 °F /  20 °C 30.16 in /  1021.2 hPa South 4.0 mph /  6.4 km/h 5.0 mph /  8 km/h 98 % 0.00 in /  0 mm
02:46 68.5 °F /  20.3 °C 68.0 °F /  20 °C 30.15 in /  1020.9 hPa SE 2.0 mph /  3.2 km/h 5.0 mph /  8 km/h 98 % 0.00 in /  0 mm
02:51 68.4 °F /  20.2 °C 67.8 °F /  19.9 °C 30.15 in /  1020.9 hPa SSE 1.0 mph /  1.6 km/h 5.0 mph /  8 km/h 98 % 0.00 in /  0 mm
02:56 68.4 °F /  20.2 °C 67.8 °F /  19.9 °C 30.15 in /  1020.9 hPa Calm   5.0 mph /  8 km/h 98 % 0.00 in /  0 mm
03:01 68.4 °F /  20.2 °C 67.8 °F /  19.9 °C 30.15 in /  1020.9 hPa South 1.0 mph /  1.6 km/h 3.0 mph /  4.8 km/h 98 % 0.00 in /  0 mm
03:06 68.4 °F /  20.2 °C 67.8 °F /  19.9 °C 30.15 in /  1020.9 hPa SSE 1.0 mph /  1.6 km/h 3.0 mph /  4.8 km/h 98 % 0.00 in /  0 mm
03:11 68.4 °F /  20.2 °C 67.8 °F /  19.9 °C 30.15 in /  1020.9 hPa Calm   3.0 mph /  4.8 km/h 98 % 0.00 in /  0 mm
03:16 68.2 °F /  20.1 °C 67.6 °F /  19.8 °C 30.15 in /  1020.9 hPa SE 1.0 mph /  1.6 km/h 2.0 mph /  3.2 km/h 98 % 0.00 in /  0 mm
03:21 68.2 °F /  20.1 °C 67.6 °F /  19.8 °C 30.15 in /  1020.9 hPa SE 1.0 mph /  1.6 km/h 2.0 mph /  3.2 km/h 98 % 0.00 in /  0 mm
03:26 68.2 °F /  20.1 °C 67.8 °F /  19.9 °C 30.15 in /  1020.9 hPa South 1.0 mph /  1.6 km/h 2.0 mph /  3.2 km/h 99 % 0.00 in /  0 mm
03:31 68.2 °F /  20.1 °C 67.8 °F /  19.9 °C 30.15 in /  1020.9 hPa SE 1.0 mph /  1.6 km/h 2.0 mph /  3.2 km/h 99 % 0.00 in /  0 mm
03:36 68.2 °F /  20.1 °C 67.8 °F /  19.9 °C 30.14 in /  1020.5 hPa Calm   2.0 mph /  3.2 km/h 99 % 0.00 in /  0 mm
03:41 68.2 °F /  20.1 °C 67.8 °F /  19.9 °C 30.14 in /  1020.5 hPa Calm   2.0 mph /  3.2 km/h 99 % 0.00 in /  0 mm
03:46 68.2 °F /  20.1 °C 67.8 °F /  19.9 °C 30.14 in /  1020.5 hPa SE 1.0 mph /  1.6 km/h 2.0 mph /  3.2 km/h 99 % 0.00 in /  0 mm
03:51 68.0 °F /  20 °C 67.6 °F /  19.8 °C 30.14 in /  1020.5 hPa SE 1.0 mph /  1.6 km/h 2.0 mph /  3.2 km/h 99 % 0.00 in /  0 mm
03:56 68.0 °F /  20 °C 67.6 °F /  19.8 °C 30.14 in /  1020.5 hPa Calm   2.0 mph /  3.2 km/h 99 % 0.00 in /  0 mm
04:01 68.0 °F /  20 °C 67.6 °F /  19.8 °C 30.14 in /  1020.5 hPa SE 1.0 mph /  1.6 km/h 3.0 mph /  4.8 km/h 99 % 0.00 in /  0 mm
04:06 68.0 °F /  20 °C 67.6 °F /  19.8 °C 30.14 in /  1020.5 hPa SE 1.0 mph /  1.6 km/h 3.0 mph /  4.8 km/h 99 % 0.00 in /  0 mm
04:11 68.0 °F /  20 °C 67.6 °F /  19.8 °C 30.14 in /  1020.5 hPa SE 3.0 mph /  4.8 km/h 3.0 mph /  4.8 km/h 99 % 0.00 in /  0 mm
04:16 68.0 °F /  20 °C 67.6 °F /  19.8 °C 30.14 in /  1020.5 hPa ESE 2.0 mph /  3.2 km/h 4.0 mph /  6.4 km/h 99 % 0.00 in /  0 mm
04:21 68.0 °F /  20 °C 67.6 °F /  19.8 °C 30.14 in /  1020.5 hPa SE 1.0 mph /  1.6 km/h 4.0 mph /  6.4 km/h 99 % 0.00 in /  0 mm
04:26 68.0 °F /  20 °C 67.6 °F /  19.8 °C 30.14 in /  1020.5 hPa SSE 1.0 mph /  1.6 km/h 4.0 mph /  6.4 km/h 99 % 0.00 in /  0 mm
04:31 68.0 °F /  20 °C 67.6 °F /  19.8 °C 30.13 in /  1020.2 hPa SE 2.0 mph /  3.2 km/h 3.0 mph /  4.8 km/h 99 % 0.00 in /  0 mm
04:36 68.0 °F /  20 °C 67.6 °F /  19.8 °C 30.13 in /  1020.2 hPa ESE 3.0 mph /  4.8 km/h 4.0 mph /  6.4 km/h 99 % 0.00 in /  0 mm
04:41 68.0 °F /  20 °C 67.6 °F /  19.8 °C 30.13 in /  1020.2 hPa East 2.0 mph /  3.2 km/h 5.0 mph /  8 km/h 99 % 0.00 in /  0 mm
04:46 68.0 °F /  20 °C 67.6 °F /  19.8 °C 30.13 in /  1020.2 hPa SE 3.0 mph /  4.8 km/h 5.0 mph /  8 km/h 99 % 0.00 in /  0 mm
04:51 67.8 °F /  19.9 °C 67.5 °F /  19.7 °C 30.13 in /  1020.2 hPa SE 4.0 mph /  6.4 km/h 5.0 mph /  8 km/h 99 % 0.00 in /  0 mm
04:56 67.8 °F /  19.9 °C 67.5 °F /  19.7 °C 30.13 in /  1020.2 hPa SE 2.0 mph /  3.2 km/h 4.0 mph /  6.4 km/h 99 % 0.00 in /  0 mm
05:01 67.8 °F /  19.9 °C 67.5 °F /  19.7 °C 30.13 in /  1020.2 hPa SSE 2.0 mph /  3.2 km/h 4.0 mph /  6.4 km/h 99 % 0.00 in /  0 mm
05:06 67.8 °F /  19.9 °C 67.5 °F /  19.7 °C 30.13 in /  1020.2 hPa SSE 1.0 mph /  1.6 km/h 4.0 mph /  6.4 km/h 99 % 0.00 in /  0 mm
05:11 67.8 °F /  19.9 °C 67.5 °F /  19.7 °C 30.13 in /  1020.2 hPa SSE 1.0 mph /  1.6 km/h 4.0 mph /  6.4 km/h 99 % 0.00 in /  0 mm
05:16 67.8 °F /  19.9 °C 67.5 °F /  19.7 °C 30.13 in /  1020.2 hPa SSE 2.0 mph /  3.2 km/h 4.0 mph /  6.4 km/h 99 % 0.00 in /  0 mm
05:21 67.8 °F /  19.9 °C 67.5 °F /  19.7 °C 30.13 in /  1020.2 hPa SSE 2.0 mph /  3.2 km/h 4.0 mph /  6.4 km/h 99 % 0.00 in /  0 mm
05:26 67.8 °F /  19.9 °C 67.5 °F /  19.7 °C 30.13 in /  1020.2 hPa SSE 2.0 mph /  3.2 km/h 5.0 mph /  8 km/h 99 % 0.00 in /  0 mm
05:32 67.8 °F /  19.9 °C 67.5 °F /  19.7 °C 30.13 in /  1020.2 hPa SSE 2.0 mph /  3.2 km/h 5.0 mph /  8 km/h 99 % 0.00 in /  0 mm
05:37 67.8 °F /  19.9 °C 67.5 °F /  19.7 °C 30.13 in /  1020.2 hPa SE 3.0 mph /  4.8 km/h 5.0 mph /  8 km/h 99 % 0.00 in /  0 mm
05:42 67.8 °F /  19.9 °C 67.8 °F /  19.9 °C 30.13 in /  1020.2 hPa SE 4.0 mph /  6.4 km/h 5.0 mph /  8 km/h 100 % 0.00 in /  0 mm
05:47 67.8 °F /  19.9 °C 67.8 °F /  19.9 °C 30.13 in /  1020.2 hPa SSE 1.0 mph /  1.6 km/h 5.0 mph /  8 km/h 100 % 0.00 in /  0 mm
05:52 67.8 °F /  19.9 °C 67.8 °F /  19.9 °C 30.13 in /  1020.2 hPa SSE 1.0 mph /  1.6 km/h 5.0 mph /  8 km/h 100 % 0.00 in /  0 mm
05:57 67.8 °F /  19.9 °C 67.8 °F /  19.9 °C 30.13 in /  1020.2 hPa SSW 2.0 mph /  3.2 km/h 4.0 mph /  6.4 km/h 100 % 0.00 in /  0 mm
06:02 67.8 °F /  19.9 °C 67.8 °F /  19.9 °C 30.13 in /  1020.2 hPa SE 3.0 mph /  4.8 km/h 4.0 mph /  6.4 km/h 100 % 0.00 in /  0 mm
06:07 68.0 °F /  20 °C 68.0 °F /  20 °C 30.14 in /  1020.5 hPa Calm   4.0 mph /  6.4 km/h 100 % 0.00 in /  0 mm
06:12 67.8 °F /  19.9 °C 67.8 °F /  19.9 °C 30.14 in /  1020.5 hPa South 1.0 mph /  1.6 km/h 4.0 mph /  6.4 km/h 100 % 0.00 in /  0 mm
06:17 67.8 °F /  19.9 °C 67.8 °F /  19.9 °C 30.14 in /  1020.5 hPa SE 2.0 mph /  3.2 km/h 4.0 mph /  6.4 km/h 100 % 0.00 in /  0 mm
06:22 67.8 °F /  19.9 °C 67.8 °F /  19.9 °C 30.14 in /  1020.5 hPa SE 2.0 mph /  3.2 km/h 4.0 mph /  6.4 km/h 100 % 0.00 in /  0 mm
06:27 67.8 °F /  19.9 °C 67.8 °F /  19.9 °C 30.14 in /  1020.5 hPa SSE 1.0 mph /  1.6 km/h 4.0 mph /  6.4 km/h 100 % 0.00 in /  0 mm
06:32 68.0 °F /  20 °C 68.0 °F /  20 °C 30.14 in /  1020.5 hPa SSE 1.0 mph /  1.6 km/h 4.0 mph /  6.4 km/h 100 % 0.00 in /  0 mm
06:37 68.0 °F /  20 °C 68.0 °F /  20 °C 30.14 in /  1020.5 hPa SSE 1.0 mph /  1.6 km/h 4.0 mph /  6.4 km/h 100 % 0.00 in /  0 mm
06:42 68.0 °F /  20 °C 68.0 °F /  20 °C 30.14 in /  1020.5 hPa South 1.0 mph /  1.6 km/h 4.0 mph /  6.4 km/h 100 % 0.00 in /  0 mm
06:47 68.0 °F /  20 °C 68.0 °F /  20 °C 30.14 in /  1020.5 hPa South 3.0 mph /  4.8 km/h 4.0 mph /  6.4 km/h 100 % 0.00 in /  0 mm
06:52 68.0 °F /  20 °C 68.0 °F /  20 °C 30.14 in /  1020.5 hPa South 2.0 mph /  3.2 km/h 4.0 mph /  6.4 km/h 100 % 0.00 in /  0 mm
06:57 68.0 °F /  20 °C 68.0 °F /  20 °C 30.14 in /  1020.5 hPa SSE 2.0 mph /  3.2 km/h 4.0 mph /  6.4 km/h 100 % 0.00 in /  0 mm
07:02 68.0 °F /  20 °C 68.0 °F /  20 °C 30.14 in /  1020.5 hPa South 3.0 mph /  4.8 km/h 4.0 mph /  6.4 km/h 100 % 0.00 in /  0 mm
07:07 68.0 °F /  20 °C 68.0 °F /  20 °C 30.14 in /  1020.5 hPa South 2.0 mph /  3.2 km/h 4.0 mph /  6.4 km/h 100 % 0.00 in /  0 mm
07:12 68.2 °F /  20.1 °C 68.2 °F /  20.1 °C 30.14 in /  1020.5 hPa SSE 3.0 mph /  4.8 km/h 4.0 mph /  6.4 km/h 100 % 0.00 in /  0 mm
07:17 68.2 °F /  20.1 °C 68.2 °F /  20.1 °C 30.14 in /  1020.5 hPa SSW 1.0 mph /  1.6 km/h 5.0 mph /  8 km/h 100 % 0.00 in /  0 mm
07:22 68.2 °F /  20.1 °C 68.2 °F /  20.1 °C 30.14 in /  1020.5 hPa South 3.0 mph /  4.8 km/h 5.0 mph /  8 km/h 100 % 0.00 in /  0 mm
07:27 68.2 °F /  20.1 °C 68.2 °F /  20.1 °C 30.14 in /  1020.5 hPa SSW 1.0 mph /  1.6 km/h 5.0 mph /  8 km/h 100 % 0.00 in /  0 mm
07:32 68.2 °F /  20.1 °C 68.2 °F /  20.1 °C 30.14 in /  1020.5 hPa SE 2.0 mph /  3.2 km/h 5.0 mph /  8 km/h 100 % 0.00 in /  0 mm
07:37 68.2 °F /  20.1 °C 68.2 °F /  20.1 °C 30.14 in /  1020.5 hPa East 2.0 mph /  3.2 km/h 6.0 mph /  9.7 km/h 100 % 0.00 in /  0 mm
07:42 68.4 °F /  20.2 °C 68.4 °F /  20.2 °C 30.14 in /  1020.5 hPa SSW 4.0 mph /  6.4 km/h 6.0 mph /  9.7 km/h 100 % 0.00 in /  0 mm
07:47 68.4 °F /  20.2 °C 68.4 °F /  20.2 °C 30.14 in /  1020.5 hPa SSE 2.0 mph /  3.2 km/h 6.0 mph /  9.7 km/h 100 % 0.00 in /  0 mm
07:52 68.4 °F /  20.2 °C 68.4 °F /  20.2 °C 30.14 in /  1020.5 hPa South 3.0 mph /  4.8 km/h 6.0 mph /  9.7 km/h 100 % 0.00 in /  0 mm
07:57 68.5 °F /  20.3 °C 68.5 °F /  20.3 °C 30.14 in /  1020.5 hPa SSE 3.0 mph /  4.8 km/h 6.0 mph /  9.7 km/h 100 % 0.00 in /  0 mm
08:02 68.5 °F /  20.3 °C 68.2 °F /  20.1 °C 30.14 in /  1020.5 hPa SE 2.0 mph /  3.2 km/h 6.0 mph /  9.7 km/h 99 % 0.00 in /  0 mm
08:07 68.7 °F /  20.4 °C 68.4 °F /  20.2 °C 30.14 in /  1020.5 hPa ESE 3.0 mph /  4.8 km/h 7.0 mph /  11.3 km/h 99 % 0.00 in /  0 mm
08:12 68.7 °F /  20.4 °C 68.4 °F /  20.2 °C 30.14 in /  1020.5 hPa SSE 3.0 mph /  4.8 km/h 7.0 mph /  11.3 km/h 99 % 0.00 in /  0 mm
08:17 68.7 °F /  20.4 °C 68.4 °F /  20.2 °C 30.14 in /  1020.5 hPa SSE 2.0 mph /  3.2 km/h 8.0 mph /  12.9 km/h 99 % 0.00 in /  0 mm
08:22 68.9 °F /  20.5 °C 68.5 °F /  20.3 °C 30.14 in /  1020.5 hPa SW 4.0 mph /  6.4 km/h 8.0 mph /  12.9 km/h 99 % 0.00 in /  0 mm
08:27 69.1 °F /  20.6 °C 68.7 °F /  20.4 °C 30.14 in /  1020.5 hPa South 2.0 mph /  3.2 km/h 8.0 mph /  12.9 km/h 99 % 0.00 in /  0 mm
08:32 69.1 °F /  20.6 °C 68.7 °F /  20.4 °C 30.14 in /  1020.5 hPa South 4.0 mph /  6.4 km/h 7.0 mph /  11.3 km/h 99 % 0.00 in /  0 mm
08:37 69.3 °F /  20.7 °C 68.9 °F /  20.5 °C 30.15 in /  1020.9 hPa SSW 5.0 mph /  8 km/h 7.0 mph /  11.3 km/h 99 % 0.00 in /  0 mm
08:42 69.4 °F /  20.8 °C 68.9 °F /  20.5 °C 30.15 in /  1020.9 hPa SSE 5.0 mph /  8 km/h 7.0 mph /  11.3 km/h 98 % 0.00 in /  0 mm
08:47 69.4 °F /  20.8 °C 68.9 °F /  20.5 °C 30.15 in /  1020.9 hPa South 2.0 mph /  3.2 km/h 9.0 mph /  14.5 km/h 98 % 0.00 in /  0 mm
08:52 69.6 °F /  20.9 °C 69.1 °F /  20.6 °C 30.15 in /  1020.9 hPa SE 2.0 mph /  3.2 km/h 9.0 mph /  14.5 km/h 98 % 0.00 in /  0 mm
08:57 69.8 °F /  21 °C 69.3 °F /  20.7 °C 30.15 in /  1020.9 hPa SSE 2.0 mph /  3.2 km/h 10.0 mph /  16.1 km/h 98 % 0.00 in /  0 mm
09:02 70.0 °F /  21.1 °C 69.1 °F /  20.6 °C 30.15 in /  1020.9 hPa SSE 4.0 mph /  6.4 km/h 10.0 mph /  16.1 km/h 97 % 0.00 in /  0 mm
09:07 70.2 °F /  21.2 °C 69.3 °F /  20.7 °C 30.15 in /  1020.9 hPa SSE 3.0 mph /  4.8 km/h 11.0 mph /  17.7 km/h 97 % 0.00 in /  0 mm
09:12 70.3 °F /  21.3 °C 69.4 °F /  20.8 °C 30.15 in /  1020.9 hPa South 2.0 mph /  3.2 km/h 11.0 mph /  17.7 km/h 97 % 0.00 in /  0 mm
09:17 70.5 °F /  21.4 °C 69.3 °F /  20.7 °C 30.15 in /  1020.9 hPa SE 3.0 mph /  4.8 km/h 11.0 mph /  17.7 km/h 96 % 0.00 in /  0 mm
09:22 70.7 °F /  21.5 °C 69.4 °F /  20.8 °C 30.15 in /  1020.9 hPa SE 3.0 mph /  4.8 km/h 8.0 mph /  12.9 km/h 96 % 0.00 in /  0 mm
09:27 70.9 °F /  21.6 °C 69.6 °F /  20.9 °C 30.16 in /  1021.2 hPa East 3.0 mph /  4.8 km/h 8.0 mph /  12.9 km/h 96 % 0.00 in /  0 mm
09:32 71.1 °F /  21.7 °C 69.6 °F /  20.9 °C 30.16 in /  1021.2 hPa South 3.0 mph /  4.8 km/h 10.0 mph /  16.1 km/h 95 % 0.00 in /  0 mm
09:37 71.2 °F /  21.8 °C 69.8 °F /  21 °C 30.15 in /  1020.9 hPa SSW 4.0 mph /  6.4 km/h 10.0 mph /  16.1 km/h 95 % 0.00 in /  0 mm
09:42 71.6 °F /  22 °C 69.8 °F /  21 °C 30.15 in /  1020.9 hPa South 6.0 mph /  9.7 km/h 10.0 mph /  16.1 km/h 94 % 0.00 in /  0 mm
09:47 72.0 °F /  22.2 °C 69.8 °F /  21 °C 30.16 in /  1021.2 hPa SW 5.0 mph /  8 km/h 10.0 mph /  16.1 km/h 93 % 0.00 in /  0 mm
09:52 72.0 °F /  22.2 °C 69.4 °F /  20.8 °C 30.16 in /  1021.2 hPa SSW 4.0 mph /  6.4 km/h 10.0 mph /  16.1 km/h 92 % 0.00 in /  0 mm
09:57 72.3 °F /  22.4 °C 69.8 °F /  21 °C 30.16 in /  1021.2 hPa South 4.0 mph /  6.4 km/h 10.0 mph /  16.1 km/h 92 % 0.00 in /  0 mm
10:02 72.3 °F /  22.4 °C 69.6 °F /  20.9 °C 30.15 in /  1020.9 hPa South 4.0 mph /  6.4 km/h 13.0 mph /  20.9 km/h 91 % 0.00 in /  0 mm
10:07 72.5 °F /  22.5 °C 69.8 °F /  21 °C 30.16 in /  1021.2 hPa WSW 4.0 mph /  6.4 km/h 13.0 mph /  20.9 km/h 91 % 0.00 in /  0 mm
10:12 72.7 °F /  22.6 °C 70.0 °F /  21.1 °C 30.16 in /  1021.2 hPa South 10.0 mph /  16.1 km/h 13.0 mph /  20.9 km/h 91 % 0.00 in /  0 mm
10:17 72.9 °F /  22.7 °C 70.2 °F /  21.2 °C 30.16 in /  1021.2 hPa South 6.0 mph /  9.7 km/h 10.0 mph /  16.1 km/h 91 % 0.00 in /  0 mm
10:22 73.2 °F /  22.9 °C 69.8 °F /  21 °C 30.16 in /  1021.2 hPa SSW 7.0 mph /  11.3 km/h 10.0 mph /  16.1 km/h 89 % 0.00 in /  0 mm
10:27 73.6 °F /  23.1 °C 70.2 °F /  21.2 °C 30.15 in /  1020.9 hPa SSW 4.0 mph /  6.4 km/h 11.0 mph /  17.7 km/h 89 % 0.00 in /  0 mm
10:32 73.6 °F /  23.1 °C 70.2 °F /  21.2 °C 30.15 in /  1020.9 hPa South 7.0 mph /  11.3 km/h 11.0 mph /  17.7 km/h 89 % 0.00 in /  0 mm
10:37 73.8 °F /  23.2 °C 70.3 °F /  21.3 °C 30.16 in /  1021.2 hPa South 3.0 mph /  4.8 km/h 11.0 mph /  17.7 km/h 89 % 0.00 in /  0 mm
10:42 73.8 °F /  23.2 °C 69.6 °F /  20.9 °C 30.16 in /  1021.2 hPa SE 8.0 mph /  12.9 km/h 13.0 mph /  20.9 km/h 87 % 0.00 in /  0 mm
10:47 73.8 °F /  23.2 °C 69.6 °F /  20.9 °C 30.15 in /  1020.9 hPa SE 4.0 mph /  6.4 km/h 14.0 mph /  22.5 km/h 87 % 0.00 in /  0 mm
10:52 74.1 °F /  23.4 °C 70.3 °F /  21.3 °C 30.15 in /  1020.9 hPa South 7.0 mph /  11.3 km/h 14.0 mph /  22.5 km/h 88 % 0.00 in /  0 mm
10:57 74.5 °F /  23.6 °C 70.0 °F /  21.1 °C 30.15 in /  1020.9 hPa SSE 7.0 mph /  11.3 km/h 14.0 mph /  22.5 km/h 86 % 0.00 in /  0 mm
11:02 74.8 °F /  23.8 °C 70.3 °F /  21.3 °C 30.15 in /  1020.9 hPa SE 8.0 mph /  12.9 km/h 15.0 mph /  24.1 km/h 86 % 0.00 in /  0 mm
11:07 75.6 °F /  24.2 °C 70.7 °F /  21.5 °C 30.15 in /  1020.9 hPa SSW 8.0 mph /  12.9 km/h 15.0 mph /  24.1 km/h 85 % 0.00 in /  0 mm
11:12 75.7 °F /  24.3 °C 70.5 °F /  21.4 °C 30.15 in /  1020.9 hPa South 7.0 mph /  11.3 km/h 15.0 mph /  24.1 km/h 84 % 0.00 in /  0 mm
11:17 75.4 °F /  24.1 °C 69.8 °F /  21 °C 30.15 in /  1020.9 hPa SSE 4.0 mph /  6.4 km/h 13.0 mph /  20.9 km/h 83 % 0.00 in /  0 mm
11:22 75.2 °F /  24 °C 70.0 °F /  21.1 °C 30.14 in /  1020.5 hPa South 3.0 mph /  4.8 km/h 13.0 mph /  20.9 km/h 84 % 0.00 in /  0 mm
11:27 75.6 °F /  24.2 °C 70.3 °F /  21.3 °C 30.14 in /  1020.5 hPa SSE 6.0 mph /  9.7 km/h 13.0 mph /  20.9 km/h 84 % 0.00 in /  0 mm
11:32 75.6 °F /  24.2 °C 70.0 °F /  21.1 °C 30.14 in /  1020.5 hPa South 5.0 mph /  8 km/h 12.0 mph /  19.3 km/h 83 % 0.00 in /  0 mm
11:37 75.6 °F /  24.2 °C 70.0 °F /  21.1 °C 30.14 in /  1020.5 hPa SW 4.0 mph /  6.4 km/h 14.0 mph /  22.5 km/h 83 % 0.00 in /  0 mm
11:42 75.6 °F /  24.2 °C 70.0 °F /  21.1 °C 30.14 in /  1020.5 hPa SE 5.0 mph /  8 km/h 15.0 mph /  24.1 km/h 83 % 0.00 in /  0 mm
11:47 75.7 °F /  24.3 °C 69.8 °F /  21 °C 30.14 in /  1020.5 hPa SSE 4.0 mph /  6.4 km/h 15.0 mph /  24.1 km/h 82 % 0.00 in /  0 mm
11:52 75.9 °F /  24.4 °C 70.0 °F /  21.1 °C 30.13 in /  1020.2 hPa SSE 11.0 mph /  17.7 km/h 15.0 mph /  24.1 km/h 82 % 0.00 in /  0 mm
11:57 76.1 °F /  24.5 °C 70.2 °F /  21.2 °C 30.13 in /  1020.2 hPa South 9.0 mph /  14.5 km/h 11.0 mph /  17.7 km/h 82 % 0.00 in /  0 mm
12:02 76.5 °F /  24.7 °C 70.2 °F /  21.2 °C 30.13 in /  1020.2 hPa SE 10.0 mph /  16.1 km/h 11.0 mph /  17.7 km/h 81 % 0.00 in /  0 mm
12:07 76.6 °F /  24.8 °C 70.3 °F /  21.3 °C 30.13 in /  1020.2 hPa SSE 10.0 mph /  16.1 km/h 15.0 mph /  24.1 km/h 81 % 0.00 in /  0 mm
12:12 77.2 °F /  25.1 °C 70.5 °F /  21.4 °C 30.12 in /  1019.9 hPa SSE 8.0 mph /  12.9 km/h 17.0 mph /  27.4 km/h 80 % 0.00 in /  0 mm
12:17 77.4 °F /  25.2 °C 70.3 °F /  21.3 °C 30.12 in /  1019.9 hPa SE 9.0 mph /  14.5 km/h 17.0 mph /  27.4 km/h 79 % 0.00 in /  0 mm
12:22 77.5 °F /  25.3 °C 69.8 °F /  21 °C 30.12 in /  1019.9 hPa SSE 8.0 mph /  12.9 km/h 17.0 mph /  27.4 km/h 77 % 0.00 in /  0 mm
12:27 77.5 °F /  25.3 °C 70.2 °F /  21.2 °C 30.11 in /  1019.5 hPa South 7.0 mph /  11.3 km/h 17.0 mph /  27.4 km/h 78 % 0.00 in /  0 mm
12:32 77.5 °F /  25.3 °C 69.8 °F /  21 °C 30.11 in /  1019.5 hPa South 6.0 mph /  9.7 km/h 17.0 mph /  27.4 km/h 77 % 0.00 in /  0 mm
12:37 77.4 °F /  25.2 °C 69.6 °F /  20.9 °C 30.11 in /  1019.5 hPa SSW 8.0 mph /  12.9 km/h 18.0 mph /  29 km/h 77 % 0.00 in /  0 mm
12:42 77.7 °F /  25.4 °C 70.0 °F /  21.1 °C 30.10 in /  1019.2 hPa SSW 3.0 mph /  4.8 km/h 18.0 mph /  29 km/h 77 % 0.00 in /  0 mm
12:47 78.1 °F /  25.6 °C 70.0 °F /  21.1 °C 30.10 in /  1019.2 hPa SSE 6.0 mph /  9.7 km/h 18.0 mph /  29 km/h 76 % 0.00 in /  0 mm
12:52 78.3 °F /  25.7 °C 70.0 °F /  21.1 °C 30.09 in /  1018.8 hPa SE 10.0 mph /  16.1 km/h 18.0 mph /  29 km/h 76 % 0.00 in /  0 mm
12:57 78.4 °F /  25.8 °C 69.8 °F /  21 °C 30.09 in /  1018.8 hPa SSE 7.0 mph /  11.3 km/h 16.0 mph /  25.7 km/h 75 % 0.00 in /  0 mm
13:02 78.3 °F /  25.7 °C 69.6 °F /  20.9 °C 30.09 in /  1018.8 hPa SSE 9.0 mph /  14.5 km/h 17.0 mph /  27.4 km/h 75 % 0.00 in /  0 mm
13:07 79.0 °F /  26.1 °C 70.0 °F /  21.1 °C 30.08 in /  1018.5 hPa SE 7.0 mph /  11.3 km/h 17.0 mph /  27.4 km/h 74 % 0.00 in /  0 mm
13:12 79.0 °F /  26.1 °C 69.6 °F /  20.9 °C 30.08 in /  1018.5 hPa SSW 5.0 mph /  8 km/h 17.0 mph /  27.4 km/h 73 % 0.00 in /  0 mm
13:17 78.8 °F /  26 °C 68.5 °F /  20.3 °C 30.08 in /  1018.5 hPa South 10.0 mph /  16.1 km/h 18.0 mph /  29 km/h 71 % 0.00 in /  0 mm
13:22 78.8 °F /  26 °C 69.1 °F /  20.6 °C 30.08 in /  1018.5 hPa SW 9.0 mph /  14.5 km/h 18.0 mph /  29 km/h 72 % 0.00 in /  0 mm
13:27 78.6 °F /  25.9 °C 68.9 °F /  20.5 °C 30.07 in /  1018.2 hPa SSE 13.0 mph /  20.9 km/h 18.0 mph /  29 km/h 72 % 0.00 in /  0 mm
13:32 79.3 °F /  26.3 °C 69.4 °F /  20.8 °C 30.07 in /  1018.2 hPa SE 5.0 mph /  8 km/h 16.0 mph /  25.7 km/h 72 % 0.00 in /  0 mm
13:37 80.4 °F /  26.9 °C 69.8 °F /  21 °C 30.07 in /  1018.2 hPa SW 11.0 mph /  17.7 km/h 16.0 mph /  25.7 km/h 70 % 0.00 in /  0 mm
13:42 80.8 °F /  27.1 °C 68.7 °F /  20.4 °C 30.07 in /  1018.2 hPa South 10.0 mph /  16.1 km/h 16.0 mph /  25.7 km/h 67 % 0.00 in /  0 mm
13:47 80.4 °F /  26.9 °C 68.0 °F /  20 °C 30.06 in /  1017.8 hPa SSW 9.0 mph /  14.5 km/h 21.0 mph /  33.8 km/h 66 % 0.00 in /  0 mm
13:52 80.4 °F /  26.9 °C 68.0 °F /  20 °C 30.06 in /  1017.8 hPa South 10.0 mph /  16.1 km/h 21.0 mph /  33.8 km/h 66 % 0.00 in /  0 mm
13:57 80.2 °F /  26.8 °C 67.8 °F /  19.9 °C 30.06 in /  1017.8 hPa SSW 5.0 mph /  8 km/h 21.0 mph /  33.8 km/h 66 % 0.00 in /  0 mm
14:02 80.4 °F /  26.9 °C 68.5 °F /  20.3 °C 30.06 in /  1017.8 hPa NE 7.0 mph /  11.3 km/h 15.0 mph /  24.1 km/h 67 % 0.00 in /  0 mm
14:07 80.4 °F /  26.9 °C 68.0 °F /  20 °C 30.06 in /  1017.8 hPa SW 13.0 mph /  20.9 km/h 16.0 mph /  25.7 km/h 66 % 0.00 in /  0 mm
14:12 80.8 °F /  27.1 °C 68.7 °F /  20.4 °C 30.06 in /  1017.8 hPa SW 8.0 mph /  12.9 km/h 16.0 mph /  25.7 km/h 67 % 0.00 in /  0 mm
14:17 80.2 °F /  26.8 °C 67.5 °F /  19.7 °C 30.06 in /  1017.8 hPa SSE 9.0 mph /  14.5 km/h 16.0 mph /  25.7 km/h 65 % 0.00 in /  0 mm
14:22 80.2 °F /  26.8 °C 67.8 °F /  19.9 °C 30.06 in /  1017.8 hPa South 5.0 mph /  8 km/h 16.0 mph /  25.7 km/h 66 % 0.00 in /  0 mm
14:27 81.0 °F /  27.2 °C 67.6 °F /  19.8 °C 30.06 in /  1017.8 hPa South 7.0 mph /  11.3 km/h 15.0 mph /  24.1 km/h 64 % 0.00 in /  0 mm
14:32 81.0 °F /  27.2 °C 67.6 °F /  19.8 °C 30.05 in /  1017.5 hPa South 7.0 mph /  11.3 km/h 15.0 mph /  24.1 km/h 64 % 0.00 in /  0 mm
14:38 81.1 °F /  27.3 °C 66.9 °F /  19.4 °C 30.06 in /  1017.8 hPa SSE 12.0 mph /  19.3 km/h 15.0 mph /  24.1 km/h 62 % 0.00 in /  0 mm
14:43 80.2 °F /  26.8 °C 66.9 °F /  19.4 °C 30.06 in /  1017.8 hPa SSW 4.0 mph /  6.4 km/h 15.0 mph /  24.1 km/h 64 % 0.00 in /  0 mm
14:48 80.8 °F /  27.1 °C 67.5 °F /  19.7 °C 30.05 in /  1017.5 hPa SSE 11.0 mph /  17.7 km/h 15.0 mph /  24.1 km/h 64 % 0.00 in /  0 mm
14:53 81.0 °F /  27.2 °C 67.6 °F /  19.8 °C 30.05 in /  1017.5 hPa SSW 10.0 mph /  16.1 km/h 15.0 mph /  24.1 km/h 64 % 0.00 in /  0 mm
14:58 81.1 °F /  27.3 °C 67.3 °F /  19.6 °C 30.05 in /  1017.5 hPa South 7.0 mph /  11.3 km/h 14.0 mph /  22.5 km/h 63 % 0.00 in /  0 mm
15:03 80.8 °F /  27.1 °C 66.9 °F /  19.4 °C 30.05 in /  1017.5 hPa South 7.0 mph /  11.3 km/h 14.0 mph /  22.5 km/h 63 % 0.00 in /  0 mm
15:08 80.2 °F /  26.8 °C 66.9 °F /  19.4 °C 30.05 in /  1017.5 hPa South 9.0 mph /  14.5 km/h 17.0 mph /  27.4 km/h 64 % 0.00 in /  0 mm
15:13 80.2 °F /  26.8 °C 67.5 °F /  19.7 °C 30.05 in /  1017.5 hPa SSW 6.0 mph /  9.7 km/h 17.0 mph /  27.4 km/h 65 % 0.00 in /  0 mm
15:18 80.2 °F /  26.8 °C 66.9 °F /  19.4 °C 30.05 in /  1017.5 hPa SE 9.0 mph /  14.5 km/h 17.0 mph /  27.4 km/h 64 % 0.00 in /  0 mm
15:23 79.9 °F /  26.6 °C 67.5 °F /  19.7 °C 30.04 in /  1017.2 hPa SW 10.0 mph /  16.1 km/h 16.0 mph /  25.7 km/h 66 % 0.00 in /  0 mm
15:28 80.1 °F /  26.7 °C 67.3 °F /  19.6 °C 30.04 in /  1017.2 hPa SSE 4.0 mph /  6.4 km/h 19.0 mph /  30.6 km/h 65 % 0.00 in /  0 mm
15:33 79.7 °F /  26.5 °C 66.9 °F /  19.4 °C 30.04 in /  1017.2 hPa SW 6.0 mph /  9.7 km/h 19.0 mph /  30.6 km/h 65 % 0.00 in /  0 mm
15:38 79.5 °F /  26.4 °C 67.1 °F /  19.5 °C 30.04 in /  1017.2 hPa SSW 4.0 mph /  6.4 km/h 19.0 mph /  30.6 km/h 66 % 0.00 in /  0 mm
15:43 79.3 °F /  26.3 °C 66.9 °F /  19.4 °C 30.04 in /  1017.2 hPa SE 7.0 mph /  11.3 km/h 14.0 mph /  22.5 km/h 66 % 0.00 in /  0 mm
15:48 79.3 °F /  26.3 °C 66.9 °F /  19.4 °C 30.04 in /  1017.2 hPa SSE 9.0 mph /  14.5 km/h 14.0 mph /  22.5 km/h 66 % 0.00 in /  0 mm
15:53 79.5 °F /  26.4 °C 67.1 °F /  19.5 °C 30.04 in /  1017.2 hPa SSE 8.0 mph /  12.9 km/h 13.0 mph /  20.9 km/h 66 % 0.00 in /  0 mm
15:58 79.2 °F /  26.2 °C 66.7 °F /  19.3 °C 30.03 in /  1016.8 hPa SSE 4.0 mph /  6.4 km/h 13.0 mph /  20.9 km/h 66 % 0.00 in /  0 mm
16:03 79.3 °F /  26.3 °C 66.9 °F /  19.4 °C 30.03 in /  1016.8 hPa SSW 8.0 mph /  12.9 km/h 13.0 mph /  20.9 km/h 66 % 0.00 in /  0 mm
16:08 79.3 °F /  26.3 °C 67.5 °F /  19.7 °C 30.03 in /  1016.8 hPa SSW 4.0 mph /  6.4 km/h 13.0 mph /  20.9 km/h 67 % 0.00 in /  0 mm
16:13 79.2 °F /  26.2 °C 66.7 °F /  19.3 °C 30.03 in /  1016.8 hPa SE 6.0 mph /  9.7 km/h 13.0 mph /  20.9 km/h 66 % 0.00 in /  0 mm
16:18 78.8 °F /  26 °C 66.6 °F /  19.2 °C 30.03 in /  1016.8 hPa SSE 4.0 mph /  6.4 km/h 13.0 mph /  20.9 km/h 66 % 0.00 in /  0 mm
16:23 78.4 °F /  25.8 °C 66.6 °F /  19.2 °C 30.03 in /  1016.8 hPa SSE 8.0 mph /  12.9 km/h 14.0 mph /  22.5 km/h 67 % 0.00 in /  0 mm
16:28 78.4 °F /  25.8 °C 66.9 °F /  19.4 °C 30.03 in /  1016.8 hPa SSW 7.0 mph /  11.3 km/h 14.0 mph /  22.5 km/h 68 % 0.00 in /  0 mm
16:33 78.8 °F /  26 °C 66.9 °F /  19.4 °C 30.03 in /  1016.8 hPa South 11.0 mph /  17.7 km/h 15.0 mph /  24.1 km/h 67 % 0.00 in /  0 mm
16:38 79.0 °F /  26.1 °C 67.1 °F /  19.5 °C 30.03 in /  1016.8 hPa SW 4.0 mph /  6.4 km/h 15.0 mph /  24.1 km/h 67 % 0.00 in /  0 mm
16:43 79.2 °F /  26.2 °C 66.7 °F /  19.3 °C 30.03 in /  1016.8 hPa South 7.0 mph /  11.3 km/h 15.0 mph /  24.1 km/h 66 % 0.00 in /  0 mm
16:48 79.0 °F /  26.1 °C 67.1 °F /  19.5 °C 30.02 in /  1016.5 hPa SSW 7.0 mph /  11.3 km/h 13.0 mph /  20.9 km/h 67 % 0.00 in /  0 mm
16:53 79.0 °F /  26.1 °C 67.1 °F /  19.5 °C 30.03 in /  1016.8 hPa South 4.0 mph /  6.4 km/h 13.0 mph /  20.9 km/h 67 % 0.00 in /  0 mm
16:58 78.8 °F /  26 °C 66.9 °F /  19.4 °C 30.03 in /  1016.8 hPa SW 11.0 mph /  17.7 km/h 13.0 mph /  20.9 km/h 67 % 0.00 in /  0 mm
17:03 78.6 °F /  25.9 °C 66.7 °F /  19.3 °C 30.03 in /  1016.8 hPa SSE 7.0 mph /  11.3 km/h 14.0 mph /  22.5 km/h 67 % 0.00 in /  0 mm
17:08 78.3 °F /  25.7 °C 66.4 °F /  19.1 °C 30.03 in /  1016.8 hPa SSW 13.0 mph /  20.9 km/h 14.0 mph /  22.5 km/h 67 % 0.00 in /  0 mm
17:09 78.3 °F /  25.7 °C 66.7 °F /  19.3 °C 30.03 in /  1016.8 hPa South 8.0 mph /  12.9 km/h 14.0 mph /  22.5 km/h 68 % 0.00 in /  0 mm
17:14 77.9 °F /  25.5 °C 66.6 °F /  19.2 °C 30.03 in /  1016.8 hPa SSW 6.0 mph /  9.7 km/h 14.0 mph /  22.5 km/h 68 % 0.00 in /  0 mm
17:19 77.5 °F /  25.3 °C 66.6 °F /  19.2 °C 30.03 in /  1016.8 hPa South 9.0 mph /  14.5 km/h 15.0 mph /  24.1 km/h 69 % 0.00 in /  0 mm
17:24 77.4 °F /  25.2 °C 66.4 °F /  19.1 °C 30.03 in /  1016.8 hPa SSW 5.0 mph /  8 km/h 15.0 mph /  24.1 km/h 69 % 0.00 in /  0 mm
17:29 77.2 °F /  25.1 °C 66.2 °F /  19 °C 30.02 in /  1016.5 hPa SSE 5.0 mph /  8 km/h 15.0 mph /  24.1 km/h 69 % 0.00 in /  0 mm
17:34 76.8 °F /  24.9 °C 66.2 °F /  19 °C 30.03 in /  1016.8 hPa SSE 6.0 mph /  9.7 km/h 12.0 mph /  19.3 km/h 70 % 0.00 in /  0 mm
17:39 76.6 °F /  24.8 °C 66.2 °F /  19 °C 30.03 in /  1016.8 hPa South 6.0 mph /  9.7 km/h 12.0 mph /  19.3 km/h 70 % 0.00 in /  0 mm
17:44 76.5 °F /  24.7 °C 66.0 °F /  18.9 °C 30.02 in /  1016.5 hPa SSE 8.0 mph /  12.9 km/h 10.0 mph /  16.1 km/h 70 % 0.00 in /  0 mm
17:49 76.3 °F /  24.6 °C 65.8 °F /  18.8 °C 30.02 in /  1016.5 hPa South 7.0 mph /  11.3 km/h 12.0 mph /  19.3 km/h 70 % 0.00 in /  0 mm
17:54 76.1 °F /  24.5 °C 66.0 °F /  18.9 °C 30.02 in /  1016.5 hPa SE 7.0 mph /  11.3 km/h 12.0 mph /  19.3 km/h 71 % 0.00 in /  0 mm
17:59 75.7 °F /  24.3 °C 65.7 °F /  18.7 °C 30.02 in /  1016.5 hPa SSW 7.0 mph /  11.3 km/h 12.0 mph /  19.3 km/h 71 % 0.00 in /  0 mm
18:04 75.6 °F /  24.2 °C 65.8 °F /  18.8 °C 30.02 in /  1016.5 hPa SSE 5.0 mph /  8 km/h 12.0 mph /  19.3 km/h 72 % 0.00 in /  0 mm
18:09 75.6 °F /  24.2 °C 65.8 °F /  18.8 °C 30.02 in /  1016.5 hPa South 5.0 mph /  8 km/h 10.0 mph /  16.1 km/h 72 % 0.00 in /  0 mm
18:14 75.4 °F /  24.1 °C 66.2 °F /  19 °C 30.03 in /  1016.8 hPa South 3.0 mph /  4.8 km/h 10.0 mph /  16.1 km/h 73 % 0.00 in /  0 mm
18:19 75.0 °F /  23.9 °C 65.8 °F /  18.8 °C 30.02 in /  1016.5 hPa South 6.0 mph /  9.7 km/h 11.0 mph /  17.7 km/h 73 % 0.00 in /  0 mm
18:24 74.8 °F /  23.8 °C 65.7 °F /  18.7 °C 30.02 in /  1016.5 hPa SSW 6.0 mph /  9.7 km/h 11.0 mph /  17.7 km/h 73 % 0.00 in /  0 mm
18:29 74.7 °F /  23.7 °C 65.8 °F /  18.8 °C 30.02 in /  1016.5 hPa South 3.0 mph /  4.8 km/h 11.0 mph /  17.7 km/h 74 % 0.00 in /  0 mm
18:34 74.5 °F /  23.6 °C 65.7 °F /  18.7 °C 30.02 in /  1016.5 hPa SSE 2.0 mph /  3.2 km/h 9.0 mph /  14.5 km/h 74 % 0.00 in /  0 mm
18:39 74.1 °F /  23.4 °C 65.3 °F /  18.5 °C 30.02 in /  1016.5 hPa South 4.0 mph /  6.4 km/h 9.0 mph /  14.5 km/h 74 % 0.00 in /  0 mm
18:44 73.9 °F /  23.3 °C 65.1 °F /  18.4 °C 30.02 in /  1016.5 hPa SSW 4.0 mph /  6.4 km/h 8.0 mph /  12.9 km/h 74 % 0.00 in /  0 mm
18:49 73.9 °F /  23.3 °C 65.1 °F /  18.4 °C 30.03 in /  1016.8 hPa South 3.0 mph /  4.8 km/h 8.0 mph /  12.9 km/h 74 % 0.00 in /  0 mm
18:54 73.8 °F /  23.2 °C 65.3 °F /  18.5 °C 30.03 in /  1016.8 hPa SSW 2.0 mph /  3.2 km/h 8.0 mph /  12.9 km/h 75 % 0.00 in /  0 mm
18:59 73.6 °F /  23.1 °C 65.1 °F /  18.4 °C 30.03 in /  1016.8 hPa ESE 4.0 mph /  6.4 km/h 11.0 mph /  17.7 km/h 75 % 0.00 in /  0 mm
19:04 73.6 °F /  23.1 °C 65.1 °F /  18.4 °C 30.03 in /  1016.8 hPa South 3.0 mph /  4.8 km/h 11.0 mph /  17.7 km/h 75 % 0.00 in /  0 mm
19:09 73.2 °F /  22.9 °C 65.1 °F /  18.4 °C 30.03 in /  1016.8 hPa South 3.0 mph /  4.8 km/h 11.0 mph /  17.7 km/h 76 % 0.00 in /  0 mm
19:14 73.2 °F /  22.9 °C 65.7 °F /  18.7 °C 30.04 in /  1017.2 hPa SSW 4.0 mph /  6.4 km/h 9.0 mph /  14.5 km/h 77 % 0.00 in /  0 mm
19:19 73.0 °F /  22.8 °C 65.5 °F /  18.6 °C 30.04 in /  1017.2 hPa SW 5.0 mph /  8 km/h 9.0 mph /  14.5 km/h 77 % 0.00 in /  0 mm
19:24 72.9 °F /  22.7 °C 65.7 °F /  18.7 °C 30.04 in /  1017.2 hPa South 3.0 mph /  4.8 km/h 9.0 mph /  14.5 km/h 78 % 0.00 in /  0 mm
19:29 72.7 °F /  22.6 °C 65.5 °F /  18.6 °C 30.04 in /  1017.2 hPa SSE 3.0 mph /  4.8 km/h 6.0 mph /  9.7 km/h 78 % 0.00 in /  0 mm
19:34 72.7 °F /  22.6 °C 65.8 °F /  18.8 °C 30.04 in /  1017.2 hPa SSW 2.0 mph /  3.2 km/h 5.0 mph /  8 km/h 79 % 0.00 in /  0 mm
19:39 72.3 °F /  22.4 °C 65.8 °F /  18.8 °C 30.04 in /  1017.2 hPa SE 4.0 mph /  6.4 km/h 5.0 mph /  8 km/h 80 % 0.00 in /  0 mm
19:44 72.3 °F /  22.4 °C 66.2 °F /  19 °C 30.04 in /  1017.2 hPa South 2.0 mph /  3.2 km/h 5.0 mph /  8 km/h 81 % 0.00 in /  0 mm
19:49 72.1 °F /  22.3 °C 66.4 °F /  19.1 °C 30.04 in /  1017.2 hPa SSE 5.0 mph /  8 km/h 6.0 mph /  9.7 km/h 82 % 0.00 in /  0 mm
19:54 72.1 °F /  22.3 °C 66.7 °F /  19.3 °C 30.04 in /  1017.2 hPa SSW 3.0 mph /  4.8 km/h 9.0 mph /  14.5 km/h 83 % 0.00 in /  0 mm
19:59 72.0 °F /  22.2 °C 66.9 °F /  19.4 °C 30.04 in /  1017.2 hPa SSE 4.0 mph /  6.4 km/h 9.0 mph /  14.5 km/h 84 % 0.00 in /  0 mm
20:04 71.8 °F /  22.1 °C 67.1 °F /  19.5 °C 30.04 in /  1017.2 hPa SSE 2.0 mph /  3.2 km/h 9.0 mph /  14.5 km/h 85 % 0.00 in /  0 mm
20:09 71.6 °F /  22 °C 66.9 °F /  19.4 °C 30.04 in /  1017.2 hPa ESE 3.0 mph /  4.8 km/h 8.0 mph /  12.9 km/h 85 % 0.00 in /  0 mm
20:14 71.4 °F /  21.9 °C 67.1 °F /  19.5 °C 30.04 in /  1017.2 hPa South 2.0 mph /  3.2 km/h 6.0 mph /  9.7 km/h 86 % 0.00 in /  0 mm
20:19 71.2 °F /  21.8 °C 66.9 °F /  19.4 °C 30.04 in /  1017.2 hPa SSE 3.0 mph /  4.8 km/h 6.0 mph /  9.7 km/h 86 % 0.00 in /  0 mm
20:24 71.1 °F /  21.7 °C 66.9 °F /  19.4 °C 30.04 in /  1017.2 hPa SSE 1.0 mph /  1.6 km/h 6.0 mph /  9.7 km/h 87 % 0.00 in /  0 mm
20:29 71.1 °F /  21.7 °C 66.9 °F /  19.4 °C 30.04 in /  1017.2 hPa South 4.0 mph /  6.4 km/h 6.0 mph /  9.7 km/h 87 % 0.00 in /  0 mm
20:34 70.9 °F /  21.6 °C 66.7 °F /  19.3 °C 30.05 in /  1017.5 hPa SE 2.0 mph /  3.2 km/h 5.0 mph /  8 km/h 87 % 0.00 in /  0 mm
20:39 70.9 °F /  21.6 °C 67.1 °F /  19.5 °C 30.05 in /  1017.5 hPa SSW 4.0 mph /  6.4 km/h 5.0 mph /  8 km/h 88 % 0.00 in /  0 mm
20:44 70.5 °F /  21.4 °C 66.7 °F /  19.3 °C 30.05 in /  1017.5 hPa South 10.0 mph /  16.1 km/h 10.0 mph /  16.1 km/h 88 % 0.00 in /  0 mm
20:49 70.7 °F /  21.5 °C 66.9 °F /  19.4 °C 30.05 in /  1017.5 hPa SE 2.0 mph /  3.2 km/h 11.0 mph /  17.7 km/h 88 % 0.00 in /  0 mm
20:54 70.7 °F /  21.5 °C 66.9 °F /  19.4 °C 30.05 in /  1017.5 hPa South 3.0 mph /  4.8 km/h 11.0 mph /  17.7 km/h 88 % 0.00 in /  0 mm
20:59 70.7 °F /  21.5 °C 66.9 °F /  19.4 °C 30.05 in /  1017.5 hPa ESE 5.0 mph /  8 km/h 11.0 mph /  17.7 km/h 88 % 0.00 in /  0 mm
21:04 70.7 °F /  21.5 °C 67.3 °F /  19.6 °C 30.05 in /  1017.5 hPa SE 6.0 mph /  9.7 km/h 8.0 mph /  12.9 km/h 89 % 0.00 in /  0 mm
21:09 70.7 °F /  21.5 °C 67.3 °F /  19.6 °C 30.05 in /  1017.5 hPa SSE 3.0 mph /  4.8 km/h 6.0 mph /  9.7 km/h 89 % 0.00 in /  0 mm
21:14 70.7 °F /  21.5 °C 67.3 °F /  19.6 °C 30.05 in /  1017.5 hPa SSW 3.0 mph /  4.8 km/h 6.0 mph /  9.7 km/h 89 % 0.00 in /  0 mm
21:19 70.7 °F /  21.5 °C 67.3 °F /  19.6 °C 30.05 in /  1017.5 hPa SSE 3.0 mph /  4.8 km/h 6.0 mph /  9.7 km/h 89 % 0.00 in /  0 mm
21:24 70.5 °F /  21.4 °C 67.1 °F /  19.5 °C 30.05 in /  1017.5 hPa SSE 5.0 mph /  8 km/h 10.0 mph /  16.1 km/h 89 % 0.00 in /  0 mm
21:29 70.5 °F /  21.4 °C 67.1 °F /  19.5 °C 30.05 in /  1017.5 hPa SW 2.0 mph /  3.2 km/h 10.0 mph /  16.1 km/h 89 % 0.00 in /  0 mm
21:34 70.5 °F /  21.4 °C 67.5 °F /  19.7 °C 30.05 in /  1017.5 hPa SSW 2.0 mph /  3.2 km/h 10.0 mph /  16.1 km/h 90 % 0.00 in /  0 mm
21:39 70.3 °F /  21.3 °C 67.3 °F /  19.6 °C 30.06 in /  1017.8 hPa East 4.0 mph /  6.4 km/h 9.0 mph /  14.5 km/h 90 % 0.00 in /  0 mm
21:44 70.3 °F /  21.3 °C 67.3 °F /  19.6 °C 30.06 in /  1017.8 hPa SSE 2.0 mph /  3.2 km/h 9.0 mph /  14.5 km/h 90 % 0.00 in /  0 mm
21:49 70.3 °F /  21.3 °C 67.6 °F /  19.8 °C 30.06 in /  1017.8 hPa SSW 4.0 mph /  6.4 km/h 7.0 mph /  11.3 km/h 91 % 0.00 in /  0 mm
21:54 70.2 °F /  21.2 °C 67.5 °F /  19.7 °C 30.05 in /  1017.5 hPa South 2.0 mph /  3.2 km/h 5.0 mph /  8 km/h 91 % 0.00 in /  0 mm
21:59 70.2 °F /  21.2 °C 67.5 °F /  19.7 °C 30.05 in /  1017.5 hPa SSE 3.0 mph /  4.8 km/h 7.0 mph /  11.3 km/h 91 % 0.00 in /  0 mm
22:04 70.2 °F /  21.2 °C 67.5 °F /  19.7 °C 30.05 in /  1017.5 hPa SE 2.0 mph /  3.2 km/h 7.0 mph /  11.3 km/h 91 % 0.00 in /  0 mm
22:09 70.2 °F /  21.2 °C 67.5 °F /  19.7 °C 30.06 in /  1017.8 hPa SW 6.0 mph /  9.7 km/h 7.0 mph /  11.3 km/h 91 % 0.00 in /  0 mm
22:14 70.2 °F /  21.2 °C 67.5 °F /  19.7 °C 30.05 in /  1017.5 hPa South 3.0 mph /  4.8 km/h 7.0 mph /  11.3 km/h 91 % 0.00 in /  0 mm
22:19 70.2 °F /  21.2 °C 67.5 °F /  19.7 °C 30.05 in /  1017.5 hPa SSW 6.0 mph /  9.7 km/h 7.0 mph /  11.3 km/h 91 % 0.00 in /  0 mm
22:24 70.0 °F /  21.1 °C 67.3 °F /  19.6 °C 30.05 in /  1017.5 hPa SSE 6.0 mph /  9.7 km/h 7.0 mph /  11.3 km/h 91 % 0.00 in /  0 mm
22:29 70.0 °F /  21.1 °C 67.3 °F /  19.6 °C 30.05 in /  1017.5 hPa SSW 6.0 mph /  9.7 km/h 7.0 mph /  11.3 km/h 91 % 0.00 in /  0 mm
22:34 70.0 °F /  21.1 °C 67.3 °F /  19.6 °C 30.05 in /  1017.5 hPa SSW 5.0 mph /  8 km/h 9.0 mph /  14.5 km/h 91 % 0.00 in /  0 mm
22:39 70.0 °F /  21.1 °C 67.3 °F /  19.6 °C 30.05 in /  1017.5 hPa SSE 7.0 mph /  11.3 km/h 10.0 mph /  16.1 km/h 91 % 0.00 in /  0 mm
22:44 70.0 °F /  21.1 °C 67.3 °F /  19.6 °C 30.05 in /  1017.5 hPa SSE 8.0 mph /  12.9 km/h 10.0 mph /  16.1 km/h 91 % 0.00 in /  0 mm
22:49 69.8 °F /  21 °C 67.1 °F /  19.5 °C 30.05 in /  1017.5 hPa South 9.0 mph /  14.5 km/h 10.0 mph /  16.1 km/h 91 % 0.00 in /  0 mm
22:54 69.6 °F /  20.9 °C 66.9 °F /  19.4 °C 30.05 in /  1017.5 hPa SSW 4.0 mph /  6.4 km/h 11.0 mph /  17.7 km/h 91 % 0.00 in /  0 mm
22:59 69.6 °F /  20.9 °C 67.3 °F /  19.6 °C 30.05 in /  1017.5 hPa SSE 3.0 mph /  4.8 km/h 11.0 mph /  17.7 km/h 92 % 0.00 in /  0 mm
23:04 69.6 °F /  20.9 °C 67.3 °F /  19.6 °C 30.05 in /  1017.5 hPa South 3.0 mph /  4.8 km/h 11.0 mph /  17.7 km/h 92 % 0.00 in /  0 mm
23:09 69.4 °F /  20.8 °C 67.1 °F /  19.5 °C 30.04 in /  1017.2 hPa SSW 6.0 mph /  9.7 km/h 9.0 mph /  14.5 km/h 92 % 0.00 in /  0 mm
23:14 69.4 °F /  20.8 °C 67.1 °F /  19.5 °C 30.04 in /  1017.2 hPa SSW 4.0 mph /  6.4 km/h 10.0 mph /  16.1 km/h 92 % 0.00 in /  0 mm
23:19 69.4 °F /  20.8 °C 67.1 °F /  19.5 °C 30.04 in /  1017.2 hPa SE 2.0 mph /  3.2 km/h 10.0 mph /  16.1 km/h 92 % 0.00 in /  0 mm
23:24 69.4 °F /  20.8 °C 67.1 °F /  19.5 °C 30.05 in /  1017.5 hPa South 7.0 mph /  11.3 km/h 10.0 mph /  16.1 km/h 92 % 0.00 in /  0 mm
23:29 69.4 °F /  20.8 °C 67.1 °F /  19.5 °C 30.05 in /  1017.5 hPa SW 6.0 mph /  9.7 km/h 11.0 mph /  17.7 km/h 92 % 0.00 in /  0 mm
23:35 69.4 °F /  20.8 °C 67.1 °F /  19.5 °C 30.05 in /  1017.5 hPa SSW 4.0 mph /  6.4 km/h 11.0 mph /  17.7 km/h 92 % 0.00 in /  0 mm
23:40 69.4 °F /  20.8 °C 67.1 °F /  19.5 °C 30.05 in /  1017.5 hPa SSE 2.0 mph /  3.2 km/h 11.0 mph /  17.7 km/h 92 % 0.00 in /  0 mm
23:45 69.4 °F /  20.8 °C 67.1 °F /  19.5 °C 30.05 in /  1017.5 hPa SW 5.0 mph /  8 km/h 8.0 mph /  12.9 km/h 92 % 0.00 in /  0 mm
23:50 69.4 °F /  20.8 °C 67.1 °F /  19.5 °C 30.05 in /  1017.5 hPa SSE 4.0 mph /  6.4 km/h 7.0 mph /  11.3 km/h 92 % 0.00 in /  0 mm
23:55 69.4 °F /  20.8 °C 67.1 °F /  19.5 °C 30.04 in /  1017.2 hPa SSW 4.0 mph /  6.4 km/h 8.0 mph /  12.9 km/h 92 % 0.00 in /  0 mm
Spring, Texas: Villages of Bridgestone
Compliments of Weather Underground - 3 mb

Script developed by  Jim McMurry - jmcmurry@mwt.net Adapted for the template by  Wim van der Kuil - Leuven-Template.eu

You find our weather info also at:

UK Metoffice

WeatherCloud

Weather Underground

Mid-South Weather Network

AWEKAS

Citizen Weather Observer Program (CWOP)

HAMweather, WeatherForYou, PWS Weather

Equipment we use:

Weather-station
Davis Vantage Vue

Weather-program
Meteohub

Weather-server
Debian 7.9 x86 (Guest)

Provider
DreamHost

Davis Vantage Vue

Meteohub

Debian 7.9 x86 (Guest)

DreamHost